Conley, Kentucky
Current Conditions -  °F | °C
As of 9:20 AM on Thursday 27 Nov 2014 (Local Time) from KJKL Reporting Station
Haze Haze  
Wind Chill: 26°   Ceiling: 800
Heat Index: 32°   Visibility: 5mi
Dew Point: 29°   Wind: 6mph
Humidity: 88%   Direction: 280°W
Pressure: 30.18"   Gusts: NA
Location:  37.7261°N, 83.0786°W
Report Text: KJKL 271420Z AUTO 28005KT 5SM BR BKN008 BKN013 OVC020 00/M02 A3018 RMK AO2 T00001017
Loading
Personal Weather Stations






























Interactive Weather Map New forecast layout! Learn more

10-Day Weather Forecast

Advertisements
Track Severe Weather on mobile